Time;durP1;ratioP1;P1;durP2;ratioP2;P2;SDS_P1;SDS_P2;PMS_P1;PMS_P2;Temp;Humidity;BMP_temperature;BMP_pressure;BME280_temperature;BME280_humidity;BME280_pressure;Samples;Min_cycle;Max_cycle;Signal;HPM_P1;HPM_P2
2022/03/15 00:00:39;;;;;;;21.30;11.00;;;;;;;2.95;53.17;100748.54;103653;1300;24310;-30
2022/03/15 00:03:05;;;;;;;27.90;13.10;;;;;;;2.97;53.40;100751.39;103570;1301;24246;-31
2022/03/15 00:05:30;;;;;;;25.20;11.50;;;;;;;3.05;53.78;100758.29;103599;1300;24221;-27
2022/03/15 00:07:56;;;;;;;26.30;11.50;;;;;;;3.29;53.94;100759.77;103491;1302;24263;-28
2022/03/15 00:10:22;;;;;;;30.50;12.30;;;;;;;3.16;53.98;100765.19;103626;1300;24232;-25
2022/03/15 00:12:49;;;;;;;29.30;10.60;;;;;;;3.10;54.34;100762.96;103533;1301;24272;-26
2022/03/15 00:15:15;;;;;;;24.70;11.90;;;;;;;3.10;54.46;100760.92;103559;1300;22646;-28
2022/03/15 00:17:42;;;;;;;20.10;11.40;;;;;;;3.11;54.28;100762.94;103546;1301;24287;-28
2022/03/15 00:20:09;;;;;;;24.90;11.40;;;;;;;3.13;54.17;100768.10;103508;1303;24192;-25
2022/03/15 00:22:36;;;;;;;19.60;11.10;;;;;;;3.20;54.38;100770.59;103543;1303;22518;-28
2022/03/15 00:25:06;;;;;;;27.40;11.00;;;;;;;3.21;53.84;100769.27;103651;1301;22515;-25
2022/03/15 00:27:32;;;;;;;25.50;11.00;;;;;;;3.44;53.47;100765.73;103617;1300;24237;-27
2022/03/15 00:29:58;;;;;;;25.40;10.20;;;;;;;3.75;53.00;100763.55;103673;1300;24240;-26
2022/03/15 00:32:25;;;;;;;36.40;12.50;;;;;;;3.78;53.06;100764.17;103546;1300;24369;-29
2022/03/15 00:34:51;;;;;;;24.20;10.80;;;;;;;3.97;52.72;100763.27;103666;1300;24243;-29
2022/03/15 00:37:17;;;;;;;27.60;11.40;;;;;;;4.16;52.24;100761.86;103675;1300;24220;-25
2022/03/15 00:39:43;;;;;;;24.40;12.60;;;;;;;4.05;52.48;100767.71;103653;1300;24314;-29
2022/03/15 00:42:09;;;;;;;23.30;10.60;;;;;;;3.88;53.00;100766.21;103649;1300;24250;-26
2022/03/15 00:44:34;;;;;;;30.50;11.50;;;;;;;4.09;52.54;100762.63;103672;1300;24229;-25
2022/03/15 00:47:01;;;;;;;27.30;11.40;;;;;;;4.13;52.27;100758.59;103543;1300;24368;-26
2022/03/15 00:49:27;;;;;;;26.00;11.10;;;;;;;3.84;53.26;100761.42;103587;1303;24240;-25
2022/03/15 00:51:53;;;;;;;21.30;10.50;;;;;;;3.69;53.97;100767.02;103594;1300;22687;-25
2022/03/15 00:54:20;;;;;;;17.90;10.80;;;;;;;3.78;54.30;100769.54;103720;1300;24233;-30
2022/03/15 00:56:47;;;;;;;19.40;9.20;;;;;;;3.60;55.60;100769.64;103677;1301;24356;-28
2022/03/15 00:59:14;;;;;;;21.80;11.10;;;;;;;3.67;55.91;100772.61;103501;1300;24309;-27
2022/03/15 01:01:40;;;;;;;18.20;9.00;;;;;;;3.66;55.96;100772.20;103718;1300;22904;-32
2022/03/15 01:04:06;;;;;;;21.70;10.90;;;;;;;3.61;56.51;100776.48;103556;1300;24272;-26
2022/03/15 01:06:31;;;;;;;17.10;7.10;;;;;;;3.64;56.24;100784.04;103562;1299;24256;-29
2022/03/15 01:08:57;;;;;;;23.30;11.80;;;;;;;3.69;56.10;100787.56;103615;1300;22496;-26
2022/03/15 01:11:22;;;;;;;22.50;10.70;;;;;;;3.57;56.43;100793.81;103677;1300;24320;-26
2022/03/15 01:13:49;;;;;;;20.40;10.70;;;;;;;3.55;56.18;100788.24;103647;1300;24305;-29
2022/03/15 01:16:14;;;;;;;25.90;11.50;;;;;;;3.48;56.13;100787.45;103508;1302;24221;-28
2022/03/15 01:18:41;;;;;;;24.50;10.30;;;;;;;3.35;56.41;100786.41;103688;1300;24241;-28
2022/03/15 01:21:07;;;;;;;21.80;11.90;;;;;;;3.25;56.86;100789.48;103506;1302;24249;-25
2022/03/15 01:23:33;;;;;;;28.90;12.10;;;;;;;3.28;57.29;100788.23;103655;1300;24207;-27
2022/03/15 01:26:00;;;;;;;17.40;9.00;;;;;;;3.18;57.53;100784.02;103533;1300;24243;-28
2022/03/15 01:28:27;;;;;;;37.50;9.40;;;;;;;3.06;57.98;100780.11;103575;1300;24252;-26
2022/03/15 01:30:52;;;;;;;19.30;10.40;;;;;;;3.09;57.53;100782.17;103692;1300;24292;-25
2022/03/15 01:33:18;;;;;;;18.50;9.30;;;;;;;2.96;58.04;100787.77;103635;1300;24288;-25
2022/03/15 01:35:44;;;;;;;18.30;9.10;;;;;;;2.93;58.07;100792.77;103534;1300;24249;-29
2022/03/15 01:38:10;;;;;;;19.30;5.20;;;;;;;2.99;58.30;100795.35;103634;1299;24258;-28
2022/03/15 01:40:36;;;;;;;32.80;11.20;;;;;;;3.12;58.06;100797.54;103676;1300;24413;-25
2022/03/15 01:43:02;;;;;;;30.30;12.90;;;;;;;3.15;57.93;100793.92;103542;1301;24255;-25
2022/03/15 01:45:32;;;;;;;30.50;13.40;;;;;;;3.31;57.66;100793.77;103548;1302;24212;-28
2022/03/15 01:47:58;;;;;;;24.10;9.80;;;;;;;3.31;58.14;100792.95;103605;1300;24367;-27
2022/03/15 01:50:23;;;;;;;24.80;9.80;;;;;;;3.37;58.48;100794.98;103564;1300;24459;-30
2022/03/15 01:52:49;;;;;;;19.80;8.50;;;;;;;3.36;59.01;100797.36;103493;1302;24244;-28
2022/03/15 01:55:16;;;;;;;37.50;10.90;;;;;;;3.43;59.09;100795.52;103543;1300;24342;-29
2022/03/15 01:57:42;;;;;;;19.40;10.70;;;;;;;3.40;59.68;100793.83;103539;1300;24305;-25
2022/03/15 02:00:08;;;;;;;23.10;11.20;;;;;;;3.45;59.58;100800.16;103569;1300;24259;-25
2022/03/15 02:02:34;;;;;;;22.90;8.90;;;;;;;3.45;59.96;100804.08;103590;1300;22646;-30
2022/03/15 02:05:00;;;;;;;28.40;12.90;;;;;;;3.43;60.42;100802.48;103544;1302;24186;-26
2022/03/15 02:07:26;;;;;;;25.80;13.40;;;;;;;3.44;59.94;100799.75;103635;1300;24248;-29
2022/03/15 02:09:52;;;;;;;30.80;12.80;;;;;;;3.42;59.93;100799.69;103564;1300;22665;-26
2022/03/15 02:12:18;;;;;;;21.70;9.40;;;;;;;3.42;60.25;100803.56;103540;1300;24327;-25
2022/03/15 02:14:44;;;;;;;34.60;13.60;;;;;;;3.52;59.91;100800.02;103574;1300;24326;-25
2022/03/15 02:17:10;;;;;;;21.60;9.70;;;;;;;3.60;59.35;100797.42;103680;1300;22751;-28
2022/03/15 02:19:36;;;;;;;19.80;9.70;;;;;;;3.66;59.65;100797.66;103562;1300;24244;-26
2022/03/15 02:22:02;;;;;;;25.90;12.20;;;;;;;3.76;58.71;100800.99;103481;1302;24247;-26
2022/03/15 02:24:28;;;;;;;25.20;9.80;;;;;;;3.77;59.29;100799.02;103564;1300;24361;-26
2022/03/15 02:26:54;;;;;;;21.30;9.80;;;;;;;3.83;59.10;100794.47;103550;1300;24212;-28
2022/03/15 02:29:20;;;;;;;28.00;13.70;;;;;;;3.89;58.95;100792.05;103493;1302;24317;-27
2022/03/15 02:31:46;;;;;;;34.10;13.80;;;;;;;3.98;58.77;100790.98;103593;1300;24367;-28
2022/03/15 02:34:12;;;;;;;24.20;10.50;;;;;;;4.00;58.64;100783.77;103322;1303;24193;-29
2022/03/15 02:36:38;;;;;;;24.90;11.70;;;;;;;4.00;58.37;100778.95;103605;1300;24310;-27
2022/03/15 02:39:03;;;;;;;20.20;10.80;;;;;;;3.95;58.61;100782.66;103478;1302;24248;-25
2022/03/15 02:41:29;;;;;;;23.70;11.60;;;;;;;3.98;58.28;100785.98;103546;1300;24347;-26
2022/03/15 02:43:56;;;;;;;19.60;10.80;;;;;;;3.99;58.01;100787.00;103600;1300;24212;-30
2022/03/15 02:46:29;;;;;;;29.90;11.70;;;;;;;4.03;57.99;100791.27;103580;1300;24161;-25
2022/03/15 02:48:55;;;;;;;29.30;14.30;;;;;;;3.98;57.77;100785.98;103564;1300;22502;-28
2022/03/15 02:51:21;;;;;;;32.90;12.70;;;;;;;3.84;58.71;100790.30;103589;1302;24277;-28
2022/03/15 02:53:47;;;;;;;30.60;14.50;;;;;;;3.86;58.35;100788.34;103567;1300;22496;-27
2022/03/15 02:56:15;;;;;;;24.10;11.30;;;;;;;3.90;58.10;100788.27;103586;1300;24259;-25
2022/03/15 02:58:41;;;;;;;28.00;12.90;;;;;;;3.85;58.82;100784.36;103542;1300;24335;-30
2022/03/15 03:01:07;;;;;;;29.00;12.60;;;;;;;3.94;58.00;100779.41;103526;1300;24211;-27
2022/03/15 03:03:34;;;;;;;22.40;12.80;;;;;;;3.91;57.92;100765.83;103634;1300;24143;-28
2022/03/15 03:06:00;;;;;;;30.00;18.30;;;;;;;3.79;58.77;100768.55;103683;1300;24260;-29
2022/03/15 03:08:27;;;;;;;28.60;14.40;;;;;;;3.76;58.26;100774.59;103566;1300;25168;-28
2022/03/15 03:10:55;;;;;;;25.50;12.50;;;;;;;3.61;60.41;100785.70;103621;1300;24300;-27
2022/03/15 03:13:26;;;;;;;30.30;13.70;;;;;;;3.48;61.22;100789.86;103592;1300;24302;-27
2022/03/15 03:15:56;;;;;;;21.40;10.80;;;;;;;3.52;58.83;100786.04;103606;1300;24484;-26
2022/03/15 03:18:24;;;;;;;18.50;10.70;;;;;;;3.44;59.04;100785.02;103576;1300;24011;-27
2022/03/15 03:20:50;;;;;;;22.70;10.10;;;;;;;3.32;61.03;100783.30;103550;1301;24214;-30
2022/03/15 03:23:17;;;;;;;26.40;10.60;;;;;;;3.27;60.46;100781.52;103587;1300;24222;-29
2022/03/15 03:25:44;;;;;;;17.70;10.00;;;;;;;3.28;59.07;100775.44;103555;1300;22514;-25
2022/03/15 03:28:09;;;;;;;18.30;10.00;;;;;;;3.19;61.23;100779.50;103579;1300;22578;-28
2022/03/15 03:30:37;;;;;;;24.40;10.60;;;;;;;3.02;62.06;100781.27;103656;1301;24317;-27
2022/03/15 03:33:03;;;;;;;15.90;9.70;;;;;;;2.99;59.43;100784.14;103634;1300;24289;-30
2022/03/15 03:35:30;;;;;;;16.40;10.30;;;;;;;2.93;59.55;100782.34;103538;1300;24282;-30
2022/03/15 03:37:56;;;;;;;22.50;12.00;;;;;;;2.89;60.25;100780.29;103558;1300;24233;-30
2022/03/15 03:40:22;;;;;;;19.70;8.80;;;;;;;2.86;60.29;100786.92;103562;1300;24337;-26
2022/03/15 03:42:47;;;;;;;21.40;9.40;;;;;;;2.81;60.83;100786.24;103538;1300;24215;-28
2022/03/15 03:45:13;;;;;;;33.20;10.50;;;;;;;2.72;61.75;100785.64;103539;1300;24259;-28
2022/03/15 03:47:39;;;;;;;23.60;8.70;;;;;;;2.68;61.61;100786.32;103557;1300;24212;-30
2022/03/15 03:50:11;;;;;;;17.20;8.00;;;;;;;2.83;62.46;100782.18;103502;1302;24270;-29
2022/03/15 03:52:36;;;;;;;25.30;9.20;;;;;;;3.12;63.68;100777.16;103568;1300;24296;-29
2022/03/15 03:55:02;;;;;;;20.40;9.70;;;;;;;3.00;64.21;100775.96;103550;1303;24262;-27
2022/03/15 03:57:29;;;;;;;17.80;8.60;;;;;;;3.02;65.12;100771.73;103517;1300;24307;-26
2022/03/15 03:59:54;;;;;;;19.90;10.50;;;;;;;2.88;66.44;100773.46;103593;1300;24214;-27
2022/03/15 04:02:20;;;;;;;18.50;7.30;;;;;;;2.79;67.18;100784.23;103550;1300;24295;-25
2022/03/15 04:04:47;;;;;;;13.60;6.00;;;;;;;2.83;66.08;100780.79;103559;1300;24243;-28
2022/03/15 04:07:12;;;;;;;22.50;9.90;;;;;;;2.93;67.25;100773.64;103504;1302;24221;-30
2022/03/15 04:09:39;;;;;;;18.20;9.40;;;;;;;2.95;66.62;100777.02;103633;1300;24319;-26
2022/03/15 04:12:06;;;;;;;19.60;8.40;;;;;;;2.85;67.02;100769.86;103373;1300;297676;-27
2022/03/15 04:14:34;;;;;;;11.00;5.90;;;;;;;2.94;68.80;100770.91;103665;1300;24302;-27
2022/03/15 04:17:01;;;;;;;12.60;7.70;;;;;;;3.48;67.85;100769.34;103558;1300;24247;-26
2022/03/15 04:19:27;;;;;;;16.60;7.70;;;;;;;3.88;67.40;100768.18;103557;1300;22635;-28
2022/03/15 04:21:53;;;;;;;19.80;7.00;;;;;;;4.17;66.79;100766.81;103506;1302;24290;-29
2022/03/15 04:24:19;;;;;;;13.60;7.30;;;;;;;4.18;66.53;100765.61;103617;1300;24211;-29
2022/03/15 04:26:47;;;;;;;17.60;7.30;;;;;;;3.76;67.25;100769.31;103566;1300;24364;-29
2022/03/15 04:29:13;;;;;;;18.30;9.10;;;;;;;3.60;67.66;100768.42;103599;1300;23174;-26
2022/03/15 04:31:39;;;;;;;16.10;8.90;;;;;;;3.58;67.64;100764.52;103580;1302;24251;-26
2022/03/15 04:34:05;;;;;;;24.60;8.60;;;;;;;3.60;67.57;100767.72;103521;1300;24343;-25
2022/03/15 04:36:31;;;;;;;20.50;8.20;;;;;;;3.61;67.90;100765.84;103581;1300;22609;-27
2022/03/15 04:38:58;;;;;;;14.20;8.30;;;;;;;3.65;67.52;100767.17;103594;1300;22629;-25
2022/03/15 04:41:24;;;;;;;13.40;7.10;;;;;;;3.71;67.37;100770.59;103548;1300;24349;-25
2022/03/15 04:43:50;;;;;;;26.60;8.30;;;;;;;3.82;67.29;100768.36;103560;1302;22594;-28
2022/03/15 04:46:16;;;;;;;14.90;8.20;;;;;;;3.79;67.44;100770.36;103535;1300;24304;-29
2022/03/15 04:48:43;;;;;;;17.10;7.70;;;;;;;3.81;67.66;100773.17;103549;1300;24244;-25
2022/03/15 04:51:09;;;;;;;15.10;8.80;;;;;;;3.70;68.43;100772.92;103563;1300;24347;-25
2022/03/15 04:53:35;;;;;;;12.60;7.30;;;;;;;3.76;67.85;100772.13;103588;1300;24275;-28
2022/03/15 04:56:01;;;;;;;11.50;6.10;;;;;;;3.96;67.85;100776.95;103606;1300;24269;-25
2022/03/15 04:58:27;;;;;;;17.60;7.90;;;;;;;3.99;67.81;100779.70;103571;1300;24774;-27
2022/03/15 05:00:52;;;;;;;14.70;8.20;;;;;;;4.10;67.50;100784.05;103590;1300;24246;-27
2022/03/15 05:03:18;;;;;;;19.80;6.60;;;;;;;4.20;67.58;100787.96;103631;1300;24299;-27
2022/03/15 05:05:44;;;;;;;17.40;7.30;;;;;;;4.32;67.34;100781.19;103581;1300;24456;-30
2022/03/15 05:08:10;;;;;;;12.00;6.20;;;;;;;4.19;67.73;100781.88;103606;1300;24205;-30
2022/03/15 05:13:05;;;;;;;12.70;6.00;;;;;;;3.98;68.55;100802.67;103587;1300;24240;-30
2022/03/15 05:15:31;;;;;;;13.10;5.40;;;;;;;4.41;67.77;100796.74;103542;1300;24314;-27
2022/03/15 05:17:57;;;;;;;17.30;7.20;;;;;;;4.30;67.91;100797.30;103727;1300;24224;-25
2022/03/15 05:20:23;;;;;;;17.50;5.70;;;;;;;4.07;69.10;100801.83;103499;1302;24223;-28
2022/03/15 05:22:49;;;;;;;17.80;7.70;;;;;;;4.57;67.55;100799.80;103605;1300;24362;-27
2022/03/15 05:25:14;;;;;;;8.30;5.10;;;;;;;4.39;67.97;100805.46;103571;1300;24217;-27
2022/03/15 05:27:42;;;;;;;9.40;4.50;;;;;;;4.14;69.16;100812.74;103554;1300;24349;-25
2022/03/15 05:30:09;;;;;;;12.60;4.80;;;;;;;4.15;69.59;100815.33;103585;1300;22737;-28
2022/03/15 05:32:34;;;;;;;11.10;6.20;;;;;;;4.17;69.71;100815.14;103537;1302;22589;-30
2022/03/15 05:35:01;;;;;;;15.80;6.70;;;;;;;4.36;69.09;100809.21;103570;1300;24249;-28
2022/03/15 05:37:28;;;;;;;13.10;5.50;;;;;;;4.59;68.25;100807.56;103569;1300;24254;-27
2022/03/15 05:39:53;;;;;;;19.30;7.60;;;;;;;4.66;68.08;100807.34;103543;1300;24346;-28
2022/03/15 05:42:19;;;;;;;14.10;6.10;;;;;;;4.87;67.28;100804.63;103481;1300;24194;-28
2022/03/15 05:44:45;;;;;;;14.10;5.50;;;;;;;4.85;67.64;100804.45;103557;1300;24151;-27
2022/03/15 05:47:11;;;;;;;14.60;8.00;;;;;;;4.95;67.16;100800.95;103753;1300;24403;-25
2022/03/15 05:49:37;;;;;;;10.90;6.60;;;;;;;5.01;67.16;100795.68;103577;1300;24241;-29
2022/03/15 05:52:03;;;;;;;9.40;5.10;;;;;;;5.08;66.89;100796.32;103572;1300;24285;-27
2022/03/15 05:54:30;;;;;;;10.20;5.30;;;;;;;4.91;67.42;100797.73;103654;1300;24363;-28
2022/03/15 05:56:56;;;;;;;13.20;6.20;;;;;;;4.57;68.23;100794.10;103562;1300;24229;-28
2022/03/15 05:59:22;;;;;;;9.80;5.60;;;;;;;4.44;68.96;100799.89;103597;1300;24252;-25
2022/03/15 06:01:48;;;;;;;11.20;6.40;;;;;;;4.50;69.38;100802.66;103572;1300;24226;-28
2022/03/15 06:04:13;;;;;;;17.50;6.60;;;;;;;4.68;68.74;100804.19;103595;1301;22510;-28
2022/03/15 06:06:39;;;;;;;10.60;5.90;;;;;;;4.61;68.80;100811.99;103565;1300;24290;-28
2022/03/15 06:09:05;;;;;;;8.30;5.10;;;;;;;4.77;68.77;100806.84;103556;1300;24403;-25
2022/03/15 06:11:32;;;;;;;13.10;5.70;;;;;;;4.69;69.10;100807.18;103643;1300;24219;-27
2022/03/15 06:13:58;;;;;;;11.80;4.90;;;;;;;4.95;68.55;100803.61;103589;1300;24189;-26
2022/03/15 06:16:24;;;;;;;10.50;5.40;;;;;;;5.14;67.94;100795.87;103587;1300;22510;-25
2022/03/15 06:18:50;;;;;;;15.60;5.40;;;;;;;5.03;68.57;100796.88;103497;1300;22499;-25
2022/03/15 06:21:17;;;;;;;12.40;6.00;;;;;;;4.95;68.83;100793.52;103490;1300;24371;-28
2022/03/15 06:23:43;;;;;;;10.10;5.90;;;;;;;5.04;68.65;100779.42;103605;1300;23998;-29
2022/03/15 06:26:09;;;;;;;9.90;5.50;;;;;;;5.08;68.60;100780.64;103605;1300;24266;-29
2022/03/15 06:28:36;;;;;;;13.60;7.20;;;;;;;5.15;68.73;100785.09;103603;1300;24495;-29
2022/03/15 06:31:03;;;;;;;16.00;6.90;;;;;;;5.25;68.74;100784.30;103564;1300;24304;-25
2022/03/15 06:33:29;;;;;;;11.10;7.20;;;;;;;5.39;68.25;100786.98;103621;1300;24258;-28
2022/03/15 06:35:55;;;;;;;7.60;5.60;;;;;;;5.52;68.00;100783.60;103560;1303;24259;-26
2022/03/15 06:38:22;;;;;;;9.30;5.90;;;;;;;5.57;67.73;100781.48;103539;1300;24969;-28
2022/03/15 06:40:49;;;;;;;15.90;6.30;;;;;;;5.87;67.25;100785.27;103661;1300;24176;-28
2022/03/15 06:43:15;;;;;;;14.90;7.00;;;;;;;6.01;66.42;100779.08;103576;1300;24295;-24
2022/03/15 06:45:41;;;;;;;9.60;5.40;;;;;;;5.98;66.35;100785.31;103569;1300;24275;-25
2022/03/15 06:48:08;;;;;;;17.70;6.20;;;;;;;6.16;65.91;100783.79;103537;1300;22512;-25
2022/03/15 06:50:34;;;;;;;8.20;5.10;;;;;;;6.15;65.84;100781.59;103590;1300;24367;-25
2022/03/15 06:53:00;;;;;;;11.70;5.30;;;;;;;6.13;66.16;100779.06;103467;1302;24291;-25
2022/03/15 06:55:26;;;;;;;12.30;6.70;;;;;;;6.14;66.40;100783.98;103586;1300;23947;-25
2022/03/15 06:57:53;;;;;;;6.50;4.60;;;;;;;6.35;65.94;100783.36;103582;1300;24277;-24
2022/03/15 07:00:19;;;;;;;12.90;6.10;;;;;;;6.53;65.38;100779.81;103548;1300;24215;-25
2022/03/15 07:02:44;;;;;;;14.20;5.90;;;;;;;6.72;64.98;100777.23;103538;1300;24429;-25
2022/03/15 07:05:10;;;;;;;7.20;4.20;;;;;;;6.76;65.05;100774.19;103533;1300;24275;-26
2022/03/15 07:07:37;;;;;;;9.00;4.80;;;;;;;6.88;64.39;100773.84;103545;1300;24250;-28
2022/03/15 07:10:05;;;;;;;9.20;4.50;;;;;;;6.55;66.26;100782.83;103588;1300;24238;-25
2022/03/15 07:12:32;;;;;;;5.30;4.30;;;;;;;6.74;66.11;100784.02;103675;1300;24863;-27
2022/03/15 07:15:00;;;;;;;8.60;3.90;;;;;;;7.09;64.91;100786.71;103612;1300;24233;-27
2022/03/15 07:17:27;;;;;;;8.60;3.70;;;;;;;7.60;62.97;100791.77;103575;1300;24303;-25
2022/03/15 07:19:53;;;;;;;7.30;4.60;;;;;;;7.49;63.20;100789.36;103567;1301;22509;-28
2022/03/15 07:22:18;;;;;;;10.30;4.80;;;;;;;7.71;62.86;100787.35;103609;1300;24211;-24
2022/03/15 07:24:44;;;;;;;7.70;4.90;;;;;;;7.76;62.44;100784.25;103575;1300;24246;-28
2022/03/15 07:27:10;;;;;;;6.90;3.10;;;;;;;7.83;62.78;100783.34;103566;1300;24192;-28
2022/03/15 07:29:36;;;;;;;7.60;4.90;;;;;;;8.18;61.85;100782.55;103573;1302;24224;-28
2022/03/15 07:32:02;;;;;;;5.40;3.20;;;;;;;8.81;60.24;100780.85;103489;1302;24438;-27
2022/03/15 07:34:28;;;;;;;10.10;4.50;;;;;;;8.83;60.46;100778.59;103560;1300;24340;-25
2022/03/15 07:36:53;;;;;;;8.80;5.10;;;;;;;9.28;60.26;100767.15;103530;1300;24249;-25
2022/03/15 07:39:19;;;;;;;8.60;4.50;;;;;;;9.68;59.39;100764.08;103579;1300;24243;-27
2022/03/15 07:41:46;;;;;;;9.30;4.50;;;;;;;10.24;56.48;100767.50;103517;1302;24237;-28
2022/03/15 07:44:12;;;;;;;11.80;5.00;;;;;;;10.30;56.12;100767.73;103556;1302;24250;-28
2022/03/15 07:46:38;;;;;;;9.30;4.70;;;;;;;10.35;56.43;100765.59;103590;1300;24172;-28
2022/03/15 07:49:04;;;;;;;7.50;4.30;;;;;;;10.71;55.26;100761.04;103484;1302;24409;-25
2022/03/15 07:51:29;;;;;;;9.20;4.20;;;;;;;10.60;56.03;100765.64;103599;1300;24129;-29
2022/03/15 07:53:55;;;;;;;12.80;4.20;;;;;;;10.88;54.96;100767.09;103580;1301;24226;-25
2022/03/15 07:56:22;;;;;;;8.30;5.50;;;;;;;11.10;54.28;100771.16;103563;1300;24299;-25
2022/03/15 07:58:48;;;;;;;5.90;4.40;;;;;;;10.89;54.79;100768.95;103488;1302;24186;-25
2022/03/15 08:01:13;;;;;;;8.00;4.60;;;;;;;11.01;54.82;100769.70;103607;1300;24224;-23
2022/03/15 08:03:39;;;;;;;9.10;4.90;;;;;;;11.10;54.32;100769.27;103585;1300;24211;-29
2022/03/15 08:06:05;;;;;;;6.90;4.60;;;;;;;11.19;53.71;100767.30;103608;1300;24361;-24
2022/03/15 08:08:31;;;;;;;8.90;4.20;;;;;;;11.51;52.95;100768.65;103555;1300;24122;-24
2022/03/15 08:10:57;;;;;;;12.80;5.20;;;;;;;11.67;52.85;100765.31;103502;1300;24253;-24
2022/03/15 08:13:23;;;;;;;6.60;4.20;;;;;;;11.74;53.02;100765.23;103532;1302;24361;-28
2022/03/15 08:15:49;;;;;;;9.50;5.10;;;;;;;11.91;52.43;100760.98;103557;1300;24291;-25
2022/03/15 08:18:15;;;;;;;4.90;3.90;;;;;;;12.14;50.74;100761.26;103533;1300;24185;-26
2022/03/15 08:20:41;;;;;;;9.40;4.00;;;;;;;12.08;51.34;100764.74;103546;1300;24189;-25
2022/03/15 08:23:09;;;;;;;7.00;3.90;;;;;;;12.37;51.39;100759.23;103511;1300;24328;-29
2022/03/15 08:25:35;;;;;;;12.50;6.10;;;;;;;12.80;49.80;100762.51;103556;1300;24957;-29
2022/03/15 08:28:01;;;;;;;7.20;4.10;;;;;;;12.39;51.24;100765.29;103504;1300;24233;-24
2022/03/15 08:30:28;;;;;;;10.60;5.80;;;;;;;12.60;51.31;100759.13;103571;1300;24226;-30
2022/03/15 08:32:55;;;;;;;6.70;3.50;;;;;;;13.08;49.27;100758.61;103563;1300;24233;-28
2022/03/15 08:35:21;;;;;;;9.10;5.00;;;;;;;13.18;48.80;100749.11;103575;1300;24342;-28
2022/03/15 08:37:50;;;;;;;7.70;4.90;;;;;;;13.38;47.98;100745.53;103534;1300;22525;-25
2022/03/15 08:40:17;;;;;;;7.70;3.80;;;;;;;13.18;48.77;100747.50;103517;1302;24234;-24
2022/03/15 08:42:43;;;;;;;5.20;4.00;;;;;;;12.91;49.80;100749.60;103569;1300;24255;-28
2022/03/15 08:45:10;;;;;;;6.70;3.50;;;;;;;12.92;50.20;100746.82;103566;1300;24211;-25
2022/03/15 08:47:37;;;;;;;5.10;4.10;;;;;;;13.01;49.73;100746.80;103603;1300;24370;-25
2022/03/15 08:50:04;;;;;;;8.90;4.70;;;;;;;13.38;48.47;100739.10;103568;1302;24238;-28
2022/03/15 08:52:29;;;;;;;10.50;5.10;;;;;;;13.11;49.45;100739.69;103462;1303;23827;-29
2022/03/15 08:54:55;;;;;;;9.50;4.90;;;;;;;13.41;48.60;100738.77;103595;1300;24258;-25
2022/03/15 08:57:21;;;;;;;6.60;4.70;;;;;;;13.62;47.90;100737.98;103527;1301;24246;-25
2022/03/15 08:59:47;;;;;;;8.50;4.40;;;;;;;13.36;48.73;100731.54;103666;1300;24233;-28
2022/03/15 09:02:13;;;;;;;8.20;4.40;;;;;;;13.31;48.90;100731.06;103603;1300;24410;-28
2022/03/15 09:04:39;;;;;;;6.30;4.00;;;;;;;13.61;48.46;100727.88;103536;1300;24273;-24
2022/03/15 09:07:04;;;;;;;11.60;5.40;;;;;;;13.63;47.49;100728.52;103554;1300;24264;-24
2022/03/15 09:09:30;;;;;;;6.70;4.70;;;;;;;13.70;47.42;100721.38;103421;1300;25345;-25
2022/03/15 09:11:56;;;;;;;5.10;3.40;;;;;;;13.34;48.47;100713.65;103520;1302;24270;-28
2022/03/15 09:14:22;;;;;;;11.40;4.90;;;;;;;13.54;48.54;100711.11;103582;1300;24246;-24
2022/03/15 09:16:47;;;;;;;10.80;3.30;;;;;;;13.89;48.02;100715.38;103520;1300;24333;-28
2022/03/15 09:19:13;;;;;;;6.40;4.20;;;;;;;14.02;48.02;100710.43;103546;1300;24352;-25
2022/03/15 09:21:39;;;;;;;6.70;3.80;;;;;;;14.59;47.52;100705.34;103597;1300;23784;-28
2022/03/15 09:24:05;;;;;;;6.70;3.60;;;;;;;14.59;46.07;100701.63;103553;1300;24227;-27
2022/03/15 09:26:32;;;;;;;6.90;4.20;;;;;;;14.91;45.22;100703.80;103617;1300;24211;-27
2022/03/15 09:28:58;;;;;;;5.10;2.80;;;;;;;14.97;44.56;100703.20;103639;1300;24215;-24
2022/03/15 09:31:24;;;;;;;4.80;3.90;;;;;;;14.79;45.10;100705.30;103577;1300;22529;-27
2022/03/15 09:33:51;;;;;;;9.70;3.30;;;;;;;14.90;44.61;100700.50;103633;1300;24253;-28
2022/03/15 09:36:16;;;;;;;7.50;2.70;;;;;;;14.60;44.83;100704.05;103550;1301;24304;-25
2022/03/15 09:38:43;;;;;;;9.50;2.70;;;;;;;14.55;44.96;100698.19;103561;1300;24211;-29
2022/03/15 09:41:09;;;;;;;3.80;2.90;;;;;;;15.12;43.86;100695.38;103484;1300;24413;-29
2022/03/15 09:43:37;;;;;;;3.50;2.60;;;;;;;15.05;44.36;100689.94;103580;1300;24214;-28
2022/03/15 09:46:06;;;;;;;4.70;3.80;;;;;;;15.38;43.90;100692.81;103576;1300;24267;-27
2022/03/15 09:48:32;;;;;;;5.90;3.40;;;;;;;15.61;43.00;100692.53;103563;1300;24211;-26
2022/03/15 09:50:58;;;;;;;5.50;2.50;;;;;;;15.26;43.40;100689.45;103580;1300;24373;-29
2022/03/15 09:53:24;;;;;;;9.10;4.70;;;;;;;15.32;43.99;100685.59;103555;1300;24299;-29
2022/03/15 09:55:50;;;;;;;22.40;9.80;;;;;;;15.60;43.61;100680.80;103545;1300;24263;-24
2022/03/15 09:58:19;;;;;;;4.90;3.20;;;;;;;16.01;42.28;100684.73;103487;1302;24178;-25
2022/03/15 10:00:46;;;;;;;5.80;4.00;;;;;;;16.09;41.04;100682.36;103525;1300;24292;-25
2022/03/15 10:03:12;;;;;;;7.40;3.90;;;;;;;15.35;42.46;100680.20;103541;1300;24301;-28
2022/03/15 10:05:37;;;;;;;4.80;3.40;;;;;;;15.32;43.08;100677.48;103557;1300;24219;-24
2022/03/15 10:08:03;;;;;;;5.40;3.80;;;;;;;15.92;41.35;100677.31;103565;1300;22526;-28
2022/03/15 10:10:29;;;;;;;7.00;3.00;;;;;;;15.62;42.22;100671.83;103633;1300;24329;-25
2022/03/15 10:12:55;;;;;;;5.00;3.20;;;;;;;16.21;40.94;100667.27;103577;1300;24214;-29
2022/03/15 10:15:22;;;;;;;8.60;3.80;;;;;;;16.07;40.69;100661.30;103542;1302;24342;-27
2022/03/15 10:17:53;;;;;;;7.60;3.40;;;;;;;15.48;41.97;100658.67;103527;1301;23838;-25
2022/03/15 10:20:20;;;;;;;6.40;3.40;;;;;;;15.49;41.25;100652.94;103563;1300;25387;-29
2022/03/15 10:22:50;;;;;;;4.30;2.70;;;;;;;14.93;42.34;100652.04;103546;1300;24190;-29
2022/03/15 10:25:16;;;;;;;8.30;4.30;;;;;;;15.00;41.94;100647.11;103560;1300;24243;-24
2022/03/15 10:27:42;;;;;;;6.80;2.90;;;;;;;14.89;42.63;100646.58;103554;1300;24401;-24
2022/03/15 10:30:09;;;;;;;5.40;3.20;;;;;;;15.87;40.73;100644.64;103428;1301;22503;-31
2022/03/15 10:32:35;;;;;;;4.40;2.80;;;;;;;15.39;41.49;100641.71;103332;1303;26069;-25
2022/03/15 10:35:07;;;;;;;15.70;5.70;;;;;;;15.25;42.84;100636.54;103543;1300;24319;-24
2022/03/15 10:37:33;;;;;;;5.20;3.20;;;;;;;15.66;41.31;100632.91;103589;1300;26125;-24
2022/03/15 10:39:59;;;;;;;5.70;3.80;;;;;;;16.61;39.90;100628.83;103531;1300;24297;-28
2022/03/15 10:42:25;;;;;;;7.20;5.50;;;;;;;16.80;40.48;100625.23;103554;1300;24282;-24
2022/03/15 10:44:51;;;;;;;6.90;3.00;;;;;;;17.50;36.54;100622.86;103561;1300;22707;-28
2022/03/15 10:47:17;;;;;;;3.90;1.80;;;;;;;16.55;38.51;100622.25;103604;1300;24194;-26
2022/03/15 10:49:48;;;;;;;9.70;3.00;;;;;;;17.07;36.52;100621.55;103520;1300;24218;-28
2022/03/15 10:52:27;;;;;;;6.00;2.80;;;;;;;16.24;37.62;100619.66;103579;1300;24297;-24
2022/03/15 10:54:52;;;;;;;3.30;2.50;;;;;;;15.71;39.60;100615.42;103547;1300;22499;-28
2022/03/15 10:57:18;;;;;;;6.50;3.80;;;;;;;15.72;40.79;100606.18;103523;1300;22510;-28
2022/03/15 10:59:44;;;;;;;5.60;3.40;;;;;;;16.31;39.11;100611.05;103411;1300;22737;-27
2022/03/15 11:02:12;;;;;;;7.60;4.80;;;;;;;15.98;39.23;100609.91;103601;1300;22518;-24
2022/03/15 11:04:47;;;;;;;5.60;3.00;;;;;;;15.82;39.71;100609.88;103585;1300;25222;-26
2022/03/15 11:07:14;;;;;;;4.20;3.20;;;;;;;15.82;38.90;100606.08;103552;1302;24221;-25
2022/03/15 11:09:40;;;;;;;4.60;3.10;;;;;;;15.53;39.54;100607.48;103610;1300;24239;-27
2022/03/15 11:12:07;;;;;;;9.10;5.30;;;;;;;15.15;42.72;100601.89;103476;1300;24310;-28